Time;durP1;ratioP1;P1;durP2;ratioP2;P2;SDS_P1;SDS_P2;PMS_P1;PMS_P2;Temp;Humidity;BMP_temperature;BMP_pressure;BME280_temperature;BME280_humidity;BME280_pressure;Samples;Min_cycle;Max_cycle;Signal;HPM_P1;HPM_P2
2022/07/17 00:01:16;;;;;;;57.03;45.00;;;;;;;;;;6266045;22;20038;-56
2022/07/17 00:03:43;;;;;;;56.33;43.08;;;;;;;;;;6262632;22;20022;-57
2022/07/17 00:06:10;;;;;;;54.88;42.53;;;;;;;;;;6263065;22;20372;-55
2022/07/17 00:08:36;;;;;;;54.38;40.38;;;;;;;;;;6273455;22;20015;-56
2022/07/17 00:11:03;;;;;;;51.92;38.80;;;;;;;;;;6256652;22;20022;-55
2022/07/17 00:13:29;;;;;;;52.50;36.33;;;;;;;;;;6266287;22;20011;-57
2022/07/17 00:15:56;;;;;;;49.78;37.80;;;;;;;;;;6263523;22;20561;-56
2022/07/17 00:18:23;;;;;;;46.88;38.13;;;;;;;;;;6272901;22;20445;-56
2022/07/17 00:20:50;;;;;;;56.25;38.45;;;;;;;;;;6253606;22;20012;-57
2022/07/17 00:23:17;;;;;;;50.40;39.05;;;;;;;;;;6268299;22;20043;-57
2022/07/17 00:25:44;;;;;;;50.03;37.42;;;;;;;;;;6253497;22;20024;-56
2022/07/17 00:28:11;;;;;;;55.88;41.28;;;;;;;;;;6257708;22;20019;-57
2022/07/17 00:30:38;;;;;;;48.40;38.20;;;;;;;;;;6270784;22;20016;-57
2022/07/17 00:33:04;;;;;;;48.17;38.35;;;;;;;;;;6258935;22;20020;-57
2022/07/17 00:35:31;;;;;;;54.97;40.80;;;;;;;;;;6264928;22;20053;-55
2022/07/17 00:37:59;;;;;;;54.88;40.85;;;;;;;;;;6264943;22;20042;-56
2022/07/17 00:40:25;;;;;;;53.90;41.28;;;;;;;;;;6268579;22;20550;-56
2022/07/17 00:42:52;;;;;;;49.78;38.58;;;;;;;;;;6262059;22;20026;-56
2022/07/17 00:45:19;;;;;;;51.78;39.35;;;;;;;;;;6270065;22;20020;-56
2022/07/17 00:47:51;;;;;;;52.53;40.47;;;;;;;;;;6258972;22;20015;-57
2022/07/17 00:50:18;;;;;;;52.97;41.28;;;;;;;;;;6269438;22;20015;-57
2022/07/17 00:52:45;;;;;;;53.28;40.50;;;;;;;;;;6265860;22;20018;-56
2022/07/17 00:55:15;;;;;;;46.78;38.15;;;;;;;;;;6264887;22;20346;-57
2022/07/17 00:57:42;;;;;;;48.72;35.45;;;;;;;;;;6266304;22;20022;-56
2022/07/17 01:00:10;;;;;;;45.97;34.33;;;;;;;;;;6263002;22;20011;-57
2022/07/17 01:02:37;;;;;;;45.38;33.42;;;;;;;;;;6264242;22;20019;-57
2022/07/17 01:05:04;;;;;;;47.78;33.85;;;;;;;;;;6264627;22;20018;-57
2022/07/17 01:07:31;;;;;;;50.60;35.30;;;;;;;;;;6264601;22;20023;-57
2022/07/17 01:09:57;;;;;;;48.70;35.55;;;;;;;;;;6266739;22;20501;-58
2022/07/17 01:12:25;;;;;;;52.55;36.08;;;;;;;;;;6231901;22;20043;-57
2022/07/17 01:14:52;;;;;;;54.28;37.22;;;;;;;;;;6258308;22;20076;-56
2022/07/17 01:17:19;;;;;;;49.40;36.22;;;;;;;;;;6266617;22;20011;-55
2022/07/17 01:19:46;;;;;;;53.75;38.17;;;;;;;;;;6259215;22;20016;-57
2022/07/17 01:22:14;;;;;;;49.25;36.95;;;;;;;;;;6259601;22;20019;-57
2022/07/17 01:24:40;;;;;;;52.35;36.90;;;;;;;;;;6262350;22;20038;-56
2022/07/17 01:27:07;;;;;;;49.05;35.53;;;;;;;;;;6260997;22;20645;-56
2022/07/17 01:29:36;;;;;;;53.13;36.15;;;;;;;;;;6264109;22;20015;-56
2022/07/17 01:32:02;;;;;;;49.13;36.42;;;;;;;;;;6261715;22;20020;-58
2022/07/17 01:34:29;;;;;;;54.22;37.55;;;;;;;;;;6245993;22;20023;-56
2022/07/17 01:36:55;;;;;;;46.92;35.28;;;;;;;;;;6267028;22;20015;-57
2022/07/17 01:39:52;;;;;;;54.53;37.50;;;;;;;;;;6262779;22;20011;-57
2022/07/17 01:42:10;;;;;;;52.17;37.28;;;;;;;;;;6262314;22;20541;-58
2022/07/17 01:44:37;;;;;;;48.75;35.22;;;;;;;;;;6261958;22;20197;-56
2022/07/17 01:47:04;;;;;;;46.65;35.22;;;;;;;;;;6257647;22;20023;-55
2022/07/17 01:49:31;;;;;;;48.92;35.90;;;;;;;;;;6254975;22;20283;-55
2022/07/17 01:51:59;;;;;;;46.47;34.40;;;;;;;;;;6264306;22;20015;-56
2022/07/17 01:54:27;;;;;;;48.08;36.83;;;;;;;;;;6253977;22;20363;-54
2022/07/17 01:56:54;;;;;;;48.13;36.90;;;;;;;;;;6270883;22;20018;-56
2022/07/17 01:59:20;;;;;;;49.42;36.63;;;;;;;;;;6259431;22;20022;-54
2022/07/17 02:01:47;;;;;;;49.42;36.67;;;;;;;;;;6264552;22;20470;-56
2022/07/17 02:04:14;;;;;;;49.83;35.03;;;;;;;;;;6255057;22;20023;-54
2022/07/17 02:06:40;;;;;;;48.50;36.38;;;;;;;;;;6259727;22;20077;-55
2022/07/17 02:09:07;;;;;;;49.38;34.90;;;;;;;;;;6251450;22;20011;-56
2022/07/17 02:11:35;;;;;;;48.72;35.13;;;;;;;;;;6260882;22;20016;-56
2022/07/17 02:14:01;;;;;;;52.53;35.65;;;;;;;;;;6262857;22;20095;-56
2022/07/17 02:16:28;;;;;;;48.38;33.80;;;;;;;;;;6266583;22;20034;-57
2022/07/17 02:18:54;;;;;;;46.83;34.35;;;;;;;;;;6264772;22;20012;-57
2022/07/17 02:21:21;;;;;;;45.05;33.60;;;;;;;;;;6263368;22;20015;-56
2022/07/17 02:23:48;;;;;;;45.30;33.03;;;;;;;;;;6262944;22;20042;-56
2022/07/17 02:26:19;;;;;;;46.05;34.28;;;;;;;;;;6263944;22;20020;-57
2022/07/17 02:28:47;;;;;;;48.00;34.17;;;;;;;;;;6268377;22;20018;-56
2022/07/17 02:31:13;;;;;;;44.08;33.15;;;;;;;;;;6264184;22;20023;-58
2022/07/17 02:33:40;;;;;;;47.05;33.33;;;;;;;;;;6266246;22;20390;-57
2022/07/17 02:36:06;;;;;;;51.33;33.70;;;;;;;;;;6263240;22;20024;-55
2022/07/17 02:38:33;;;;;;;51.00;35.17;;;;;;;;;;6269006;22;20023;-58
2022/07/17 02:41:00;;;;;;;50.90;38.05;;;;;;;;;;6259899;22;20011;-57
2022/07/17 02:43:26;;;;;;;53.90;39.42;;;;;;;;;;6260655;22;20042;-57
2022/07/17 02:45:54;;;;;;;51.50;36.47;;;;;;;;;;6266520;22;20801;-55
2022/07/17 02:48:21;;;;;;;62.30;39.08;;;;;;;;;;6246205;22;20019;-56
2022/07/17 02:50:48;;;;;;;53.67;37.75;;;;;;;;;;6224530;22;20023;-45
2022/07/17 02:53:15;;;;;;;50.08;38.20;;;;;;;;;;6256010;22;20043;-43
2022/07/17 02:55:41;;;;;;;55.95;38.55;;;;;;;;;;6289880;22;20019;-44
2022/07/17 02:58:08;;;;;;;54.50;39.33;;;;;;;;;;6293111;22;20017;-45
2022/07/17 03:00:34;;;;;;;52.80;38.58;;;;;;;;;;6288336;22;20425;-44
2022/07/17 03:03:02;;;;;;;50.92;37.08;;;;;;;;;;6275833;22;20012;-47
2022/07/17 03:05:29;;;;;;;52.13;38.53;;;;;;;;;;6292784;22;20498;-44
2022/07/17 03:07:55;;;;;;;46.15;37.28;;;;;;;;;;6280431;22;20348;-43
2022/07/17 03:10:22;;;;;;;51.38;37.33;;;;;;;;;;6292341;22;20015;-49
2022/07/17 03:12:49;;;;;;;50.05;36.70;;;;;;;;;;6279521;22;20012;-44
2022/07/17 03:15:15;;;;;;;53.13;37.97;;;;;;;;;;6296895;22;20018;-45
2022/07/17 03:17:42;;;;;;;53.38;36.03;;;;;;;;;;6294690;22;20011;-46
2022/07/17 03:20:11;;;;;;;54.05;38.95;;;;;;;;;;6290021;22;20018;-44
2022/07/17 03:22:38;;;;;;;54.17;38.15;;;;;;;;;;6300779;22;20046;-44
2022/07/17 03:25:05;;;;;;;54.63;40.65;;;;;;;;;;6294615;22;20026;-45
2022/07/17 03:27:31;;;;;;;53.35;39.63;;;;;;;;;;6299627;22;20019;-43
2022/07/17 03:29:58;;;;;;;52.03;40.30;;;;;;;;;;6288395;22;20069;-44
2022/07/17 03:32:24;;;;;;;53.97;40.08;;;;;;;;;;6297330;22;20015;-43
2022/07/17 03:34:51;;;;;;;58.75;39.28;;;;;;;;;;6284457;22;20328;-44
2022/07/17 03:37:18;;;;;;;56.05;39.30;;;;;;;;;;6281669;22;20599;-44
2022/07/17 03:39:45;;;;;;;53.67;40.05;;;;;;;;;;6292288;22;20501;-46
2022/07/17 03:42:11;;;;;;;50.78;38.47;;;;;;;;;;6289961;22;20437;-45
2022/07/17 03:44:38;;;;;;;59.60;41.47;;;;;;;;;;6298198;22;20011;-44
2022/07/17 03:47:04;;;;;;;52.47;38.85;;;;;;;;;;6294773;22;20015;-45
2022/07/17 03:49:32;;;;;;;51.25;36.20;;;;;;;;;;6298424;22;20072;-42
2022/07/17 03:51:58;;;;;;;56.00;39.95;;;;;;;;;;6292281;22;20015;-44
2022/07/17 03:54:26;;;;;;;58.22;42.42;;;;;;;;;;6296576;22;20024;-45
2022/07/17 03:56:52;;;;;;;57.08;39.72;;;;;;;;;;6291656;22;20391;-44
2022/07/17 03:59:19;;;;;;;60.10;42.25;;;;;;;;;;6292311;22;20029;-44
2022/07/17 04:01:45;;;;;;;56.05;41.00;;;;;;;;;;6301112;22;20011;-46
2022/07/17 04:04:12;;;;;;;58.53;41.10;;;;;;;;;;6289226;22;20015;-46
2022/07/17 04:06:38;;;;;;;58.05;42.47;;;;;;;;;;6299586;22;20011;-49
2022/07/17 04:09:05;;;;;;;60.60;42.22;;;;;;;;;;6289286;22;20019;-44
2022/07/17 04:11:33;;;;;;;53.88;39.80;;;;;;;;;;6295623;22;20011;-45
2022/07/17 04:14:00;;;;;;;57.78;41.25;;;;;;;;;;6297043;22;20011;-43
2022/07/17 04:16:26;;;;;;;54.97;41.25;;;;;;;;;;6292168;22;20020;-46
2022/07/17 04:18:53;;;;;;;54.25;38.60;;;;;;;;;;6293361;22;20019;-44
2022/07/17 04:21:20;;;;;;;50.58;37.17;;;;;;;;;;6292308;22;20017;-45
2022/07/17 04:23:46;;;;;;;46.42;33.78;;;;;;;;;;6297022;22;20019;-45
2022/07/17 04:26:13;;;;;;;50.70;34.75;;;;;;;;;;6288387;22;20023;-44
2022/07/17 04:28:41;;;;;;;46.47;33.50;;;;;;;;;;6295570;22;20011;-45
2022/07/17 04:31:08;;;;;;;39.85;27.25;;;;;;;;;;6288657;22;20546;-45
2022/07/17 04:33:35;;;;;;;37.28;26.02;;;;;;;;;;6297878;22;20037;-44
2022/07/17 04:36:02;;;;;;;28.05;20.48;;;;;;;;;;6285026;22;20073;-45
2022/07/17 04:38:28;;;;;;;20.60;15.35;;;;;;;;;;6295786;22;20018;-45
2022/07/17 04:40:55;;;;;;;22.33;15.80;;;;;;;;;;6287827;22;20042;-45
2022/07/17 04:43:22;;;;;;;18.98;14.32;;;;;;;;;;6296798;22;20015;-44
2022/07/17 04:45:50;;;;;;;15.52;11.55;;;;;;;;;;6289476;22;20026;-43
2022/07/17 04:48:16;;;;;;;22.33;14.85;;;;;;;;;;6299511;22;20080;-47
2022/07/17 04:50:43;;;;;;;25.38;16.55;;;;;;;;;;6292330;22;20012;-44
2022/07/17 04:53:09;;;;;;;26.80;17.52;;;;;;;;;;6295032;22;20015;-44
2022/07/17 04:55:36;;;;;;;24.17;16.15;;;;;;;;;;6291324;22;20102;-47
2022/07/17 04:58:03;;;;;;;22.17;13.05;;;;;;;;;;6295873;22;20016;-46
2022/07/17 05:00:30;;;;;;;16.65;11.15;;;;;;;;;;6285222;22;20056;-43
2022/07/17 05:02:57;;;;;;;8.10;5.60;;;;;;;;;;6293968;22;20041;-44
2022/07/17 05:05:24;;;;;;;9.88;3.47;;;;;;;;;;6291723;22;20034;-47
2022/07/17 05:07:50;;;;;;;11.98;3.10;;;;;;;;;;6301822;22;20433;-46
2022/07/17 05:10:17;;;;;;;5.75;2.65;;;;;;;;;;6296251;22;20041;-45
2022/07/17 05:12:44;;;;;;;4.18;1.63;;;;;;;;;;6288426;22;20026;-45
2022/07/17 05:15:10;;;;;;;2.33;1.75;;;;;;;;;;6295661;22;20037;-45
2022/07/17 05:17:37;;;;;;;2.85;1.58;;;;;;;;;;6292538;22;20021;-48
2022/07/17 05:20:05;;;;;;;3.38;1.88;;;;;;;;;;6297856;22;20019;-46
2022/07/17 05:22:32;;;;;;;4.03;2.00;;;;;;;;;;6284839;22;20266;-43
2022/07/17 05:24:58;;;;;;;2.17;1.55;;;;;;;;;;6297993;22;20015;-44
2022/07/17 05:27:25;;;;;;;4.18;2.13;;;;;;;;;;6289491;22;20086;-44
2022/07/17 05:29:51;;;;;;;3.53;2.17;;;;;;;;;;6294483;22;20043;-47
2022/07/17 05:32:18;;;;;;;5.40;2.45;;;;;;;;;;6290729;22;20018;-44
2022/07/17 05:34:44;;;;;;;8.90;4.43;;;;;;;;;;6296707;22;20021;-45
2022/07/17 05:37:12;;;;;;;8.70;5.78;;;;;;;;;;6289952;22;20026;-44
2022/07/17 05:39:39;;;;;;;9.70;5.00;;;;;;;;;;6297794;22;20041;-46
2022/07/17 05:42:06;;;;;;;8.45;4.97;;;;;;;;;;6284457;22;20437;-44
2022/07/17 05:44:32;;;;;;;8.07;4.40;;;;;;;;;;6299119;22;20087;-47
2022/07/17 05:46:59;;;;;;;5.90;3.78;;;;;;;;;;6288613;22;20464;-44
2022/07/17 05:49:25;;;;;;;6.15;3.10;;;;;;;;;;6298286;22;20011;-45
2022/07/17 05:51:52;;;;;;;5.30;3.25;;;;;;;;;;6286384;22;20573;-45
2022/07/17 05:54:19;;;;;;;8.18;3.95;;;;;;;;;;6295674;22;20016;-44
2022/07/17 05:56:46;;;;;;;9.00;4.38;;;;;;;;;;6288602;22;20045;-45
2022/07/17 05:59:12;;;;;;;7.47;3.55;;;;;;;;;;6292721;22;20065;-45
2022/07/17 06:01:39;;;;;;;4.88;3.75;;;;;;;;;;6299138;22;20068;-46
2022/07/17 06:04:05;;;;;;;6.88;3.38;;;;;;;;;;6287773;22;20012;-45
2022/07/17 06:06:32;;;;;;;7.93;3.17;;;;;;;;;;6299599;22;20030;-44
2022/07/17 06:08:58;;;;;;;5.30;3.70;;;;;;;;;;6291438;22;20019;-45
2022/07/17 06:11:26;;;;;;;6.32;4.10;;;;;;;;;;6293744;22;20597;-46
2022/07/17 06:13:53;;;;;;;9.63;3.72;;;;;;;;;;6294413;22;20546;-48
2022/07/17 06:16:19;;;;;;;5.93;2.65;;;;;;;;;;6285675;22;20027;-47
2022/07/17 06:18:46;;;;;;;5.15;2.53;;;;;;;;;;6292433;22;20011;-47
2022/07/17 06:21:12;;;;;;;5.10;1.92;;;;;;;;;;6285353;22;20412;-47
2022/07/17 06:23:39;;;;;;;3.95;2.22;;;;;;;;;;6290040;22;20015;-46
2022/07/17 06:26:05;;;;;;;4.13;2.20;;;;;;;;;;6282050;22;20574;-47
2022/07/17 06:28:33;;;;;;;2.70;1.58;;;;;;;;;;6292185;22;20016;-47
2022/07/17 06:31:00;;;;;;;8.05;2.17;;;;;;;;;;6275776;22;20011;-46
2022/07/17 06:33:27;;;;;;;5.88;1.88;;;;;;;;;;6278579;22;20019;-47
2022/07/17 06:35:54;;;;;;;3.38;1.98;;;;;;;;;;6241655;22;20011;-45
2022/07/17 06:38:20;;;;;;;5.03;1.90;;;;;;;;;;6261421;22;20118;-42
2022/07/17 06:40:47;;;;;;;4.53;1.80;;;;;;;;;;6293447;22;20034;-44
2022/07/17 06:43:13;;;;;;;3.28;1.80;;;;;;;;;;6292497;22;20022;-43
2022/07/17 06:45:41;;;;;;;4.30;1.60;;;;;;;;;;6291520;22;20011;-44
2022/07/17 06:48:08;;;;;;;7.32;2.00;;;;;;;;;;6295311;22;20358;-45
2022/07/17 06:50:35;;;;;;;6.28;1.92;;;;;;;;;;6296010;22;20035;-45
2022/07/17 06:53:01;;;;;;;3.05;1.55;;;;;;;;;;6296830;22;20065;-46
2022/07/17 06:55:28;;;;;;;5.05;1.92;;;;;;;;;;6293345;22;20491;-46
2022/07/17 06:57:55;;;;;;;5.72;1.65;;;;;;;;;;6284953;22;20251;-44
2022/07/17 07:00:22;;;;;;;3.20;1.60;;;;;;;;;;6297705;22;20011;-44
2022/07/17 07:02:50;;;;;;;6.50;1.60;;;;;;;;;;6285710;22;20021;-48
2022/07/17 07:05:17;;;;;;;3.95;1.98;;;;;;;;;;6283113;22;20038;-44
2022/07/17 07:07:43;;;;;;;5.28;1.63;;;;;;;;;;6291261;22;20027;-47
2022/07/17 07:10:10;;;;;;;3.70;1.45;;;;;;;;;;6298015;22;20069;-45
2022/07/17 07:12:37;;;;;;;2.92;1.88;;;;;;;;;;6292902;22;20015;-45
2022/07/17 07:15:04;;;;;;;3.55;1.70;;;;;;;;;;6284196;22;20019;-46
2022/07/17 07:17:31;;;;;;;2.53;1.70;;;;;;;;;;6291329;22;20479;-46
2022/07/17 07:19:59;;;;;;;4.53;1.63;;;;;;;;;;6289690;22;20022;-49
2022/07/17 07:22:26;;;;;;;4.28;1.85;;;;;;;;;;6294198;22;20349;-44
2022/07/17 07:24:53;;;;;;;3.33;1.88;;;;;;;;;;6289993;22;20314;-46
2022/07/17 07:27:20;;;;;;;3.28;1.80;;;;;;;;;;6286685;22;20041;-46
2022/07/17 07:29:47;;;;;;;5.22;1.70;;;;;;;;;;6286715;22;20011;-46
2022/07/17 07:32:13;;;;;;;3.72;1.75;;;;;;;;;;6296984;22;20021;-46
2022/07/17 07:34:40;;;;;;;2.58;1.50;;;;;;;;;;6294260;22;20019;-46
2022/07/17 07:37:08;;;;;;;4.68;2.13;;;;;;;;;;6286612;22;20045;-45
2022/07/17 07:39:35;;;;;;;8.02;1.70;;;;;;;;;;6280858;22;20012;-46
2022/07/17 07:42:01;;;;;;;4.93;2.10;;;;;;;;;;6286390;22;20042;-45
2022/07/17 07:44:28;;;;;;;5.72;2.00;;;;;;;;;;6294486;22;20022;-48
2022/07/17 07:46:54;;;;;;;4.00;1.60;;;;;;;;;;6279710;22;20344;-46
2022/07/17 07:49:21;;;;;;;3.63;1.60;;;;;;;;;;6298977;22;20034;-47
2022/07/17 07:51:47;;;;;;;4.28;1.73;;;;;;;;;;6278623;22;20019;-45
2022/07/17 07:54:15;;;;;;;3.95;1.42;;;;;;;;;;6294431;22;20011;-46
2022/07/17 07:56:42;;;;;;;4.68;1.58;;;;;;;;;;6287229;22;20020;-46
2022/07/17 07:59:09;;;;;;;5.80;2.25;;;;;;;;;;6289189;22;20395;-46
2022/07/17 08:01:35;;;;;;;4.40;1.95;;;;;;;;;;6287098;22;20049;-47
2022/07/17 08:04:01;;;;;;;3.55;1.58;;;;;;;;;;6296061;22;20041;-45
2022/07/17 08:06:28;;;;;;;2.17;1.67;;;;;;;;;;6290515;22;20027;-46
2022/07/17 08:08:55;;;;;;;3.05;1.40;;;;;;;;;;6297525;22;20084;-45
2022/07/17 08:11:24;;;;;;;1.85;1.35;;;;;;;;;;6294009;22;20045;-45
2022/07/17 08:13:51;;;;;;;2.08;1.63;;;;;;;;;;6293777;22;20018;-46
2022/07/17 08:16:17;;;;;;;4.60;2.25;;;;;;;;;;6287180;22;20294;-47
2022/07/17 08:18:44;;;;;;;4.75;1.58;;;;;;;;;;6299656;22;20015;-46
2022/07/17 08:21:10;;;;;;;4.72;1.80;;;;;;;;;;6291282;22;20012;-47
2022/07/17 08:23:37;;;;;;;6.07;1.83;;;;;;;;;;6301555;22;20011;-46
2022/07/17 08:26:04;;;;;;;1.98;1.50;;;;;;;;;;6286883;22;20579;-45
2022/07/17 08:28:33;;;;;;;4.90;1.58;;;;;;;;;;6293178;22;20011;-48
2022/07/17 08:30:59;;;;;;;3.80;1.40;;;;;;;;;;6280850;22;20504;-46
2022/07/17 08:33:26;;;;;;;5.47;1.77;;;;;;;;;;6297304;22;20017;-44
2022/07/17 08:35:52;;;;;;;3.03;1.50;;;;;;;;;;6289943;22;20434;-46
2022/07/17 08:38:19;;;;;;;5.78;1.40;;;;;;;;;;6295424;22;20023;-46
2022/07/17 08:40:49;;;;;;;1.98;1.10;;;;;;;;;;6287069;22;20019;-45
2022/07/17 08:43:15;;;;;;;2.13;1.45;;;;;;;;;;6297484;22;20019;-46
2022/07/17 08:45:44;;;;;;;2.40;1.77;;;;;;;;;;6289495;22;20163;-48
2022/07/17 08:48:13;;;;;;;4.32;1.30;;;;;;;;;;6296978;22;20019;-43
2022/07/17 08:50:39;;;;;;;2.65;1.60;;;;;;;;;;6292015;22;20026;-44
2022/07/17 08:53:07;;;;;;;2.47;1.30;;;;;;;;;;6292807;22;20179;-45
2022/07/17 08:55:33;;;;;;;3.63;1.40;;;;;;;;;;6294715;22;20015;-45
2022/07/17 08:58:00;;;;;;;2.53;1.45;;;;;;;;;;6291412;22;20070;-44
2022/07/17 09:00:27;;;;;;;4.20;2.30;;;;;;;;;;6292245;22;20015;-47
2022/07/17 09:02:56;;;;;;;4.78;1.33;;;;;;;;;;6293006;22;20345;-45
2022/07/17 09:05:22;;;;;;;3.03;1.20;;;;;;;;;;6293914;22;20015;-45
2022/07/17 09:07:49;;;;;;;5.57;1.55;;;;;;;;;;6297789;22;20011;-49
2022/07/17 09:10:15;;;;;;;3.45;1.35;;;;;;;;;;6290439;22;20121;-45
2022/07/17 09:12:42;;;;;;;2.30;1.88;;;;;;;;;;6291275;22;20011;-46
2022/07/17 09:15:19;;;;;;;7.22;1.52;;;;;;;;;;6295089;22;20011;-44
2022/07/17 09:17:50;;;;;;;8.38;1.30;;;;;;;;;;6294687;22;20019;-44
2022/07/17 09:20:19;;;;;;;1.77;1.42;;;;;;;;;;6287464;22;20073;-48
2022/07/17 09:22:55;;;;;;;2.97;1.73;;;;;;;;;;6294252;22;20011;-46
2022/07/17 09:25:32;;;;;;;2.60;1.33;;;;;;;;;;6293228;22;20086;-45
2022/07/17 09:27:58;;;;;;;4.63;1.50;;;;;;;;;;6288323;22;20022;-46
2022/07/17 09:30:26;;;;;;;7.32;2.10;;;;;;;;;;6297551;22;20074;-48
2022/07/17 09:32:55;;;;;;;4.20;1.80;;;;;;;;;;6277840;22;20037;-50
2022/07/17 09:35:26;;;;;;;2.17;1.85;;;;;;;;;;6292361;22;20007;-46
2022/07/17 09:37:54;;;;;;;2.30;1.88;;;;;;;;;;6294101;22;20477;-46
2022/07/17 09:43:02;;;;;;;3.53;1.30;;;;;;;;;;6295576;22;20026;-45
2022/07/17 09:45:28;;;;;;;5.25;1.40;;;;;;;;;;6285244;22;20027;-44
2022/07/17 09:47:55;;;;;;;4.10;1.67;;;;;;;;;;6293708;22;20016;-45
2022/07/17 09:50:24;;;;;;;4.03;1.40;;;;;;;;;;6285049;22;20406;-47
2022/07/17 09:52:55;;;;;;;12.70;9.48;;;;;;;;;;6294132;22;20445;-44
2022/07/17 09:55:23;;;;;;;6.95;5.20;;;;;;;;;;6288662;22;20050;-45
2022/07/17 09:57:49;;;;;;;3.03;1.70;;;;;;;;;;6292996;22;20023;-47
2022/07/17 10:00:16;;;;;;;2.00;1.50;;;;;;;;;;6289170;22;20015;-46
2022/07/17 10:02:43;;;;;;;2.30;1.92;;;;;;;;;;6287136;22;20022;-45
2022/07/17 10:05:11;;;;;;;2.30;1.40;;;;;;;;;;6292165;22;20034;-46
2022/07/17 10:07:40;;;;;;;3.55;1.30;;;;;;;;;;6289189;22;20011;-46
2022/07/17 10:10:07;;;;;;;1.63;1.30;;;;;;;;;;6291399;22;20082;-46
2022/07/17 10:12:34;;;;;;;2.42;1.40;;;;;;;;;;6294540;22;20011;-44
2022/07/17 10:15:01;;;;;;;4.53;1.77;;;;;;;;;;6286861;22;20012;-46
2022/07/17 10:17:28;;;;;;;2.58;1.73;;;;;;;;;;6294705;22;20025;-46
2022/07/17 10:19:55;;;;;;;3.50;2.30;;;;;;;;;;6283344;22;20015;-45
2022/07/17 10:22:22;;;;;;;2.75;1.20;;;;;;;;;;6293715;22;20023;-45
2022/07/17 10:24:52;;;;;;;2.35;1.67;;;;;;;;;;6288927;22;20022;-46
2022/07/17 10:27:22;;;;;;;5.38;2.33;;;;;;;;;;6302081;22;20030;-48
2022/07/17 10:29:59;;;;;;;3.55;2.20;;;;;;;;;;6298147;22;20025;-45
2022/07/17 10:32:26;;;;;;;2.95;1.40;;;;;;;;;;6290676;22;20037;-45
2022/07/17 10:34:54;;;;;;;2.28;1.85;;;;;;;;;;6299679;22;20015;-46
2022/07/17 10:37:22;;;;;;;3.83;1.30;;;;;;;;;;6289031;22;20486;-44
2022/07/17 10:40:04;;;;;;;5.20;1.65;;;;;;;;;;6298285;22;20034;-44
2022/07/17 10:42:41;;;;;;;6.03;1.77;;;;;;;;;;6290414;22;20484;-46
2022/07/17 10:45:08;;;;;;;3.78;1.58;;;;;;;;;;6301348;22;20016;-44
2022/07/17 10:47:43;;;;;;;2.35;1.70;;;;;;;;;;6284994;22;20646;-47
2022/07/17 10:50:12;;;;;;;3.92;1.75;;;;;;;;;;6291789;22;20015;-47
2022/07/17 10:52:39;;;;;;;3.55;2.83;;;;;;;;;;6295100;22;20011;-47
2022/07/17 10:55:18;;;;;;;2.22;1.70;;;;;;;;;;6291025;22;20037;-44
2022/07/17 10:57:45;;;;;;;2.72;2.03;;;;;;;;;;6298739;22;20125;-47
2022/07/17 11:00:12;;;;;;;2.15;1.67;;;;;;;;;;6292637;22;20011;-47
2022/07/17 11:02:39;;;;;;;4.03;1.52;;;;;;;;;;6285107;22;20022;-45
2022/07/17 11:05:09;;;;;;;3.08;2.03;;;;;;;;;;6295313;22;20015;-47
2022/07/17 11:07:35;;;;;;;2.42;2.03;;;;;;;;;;6287033;22;20018;-46
2022/07/17 11:10:02;;;;;;;3.22;1.65;;;;;;;;;;6293678;22;20046;-46
2022/07/17 11:12:34;;;;;;;2.65;1.83;;;;;;;;;;6290553;22;20015;-44
2022/07/17 11:15:01;;;;;;;2.47;1.52;;;;;;;;;;6293780;22;20015;-48
2022/07/17 11:17:28;;;;;;;3.10;1.88;;;;;;;;;;6284065;22;20027;-48
2022/07/17 11:19:55;;;;;;;5.20;2.67;;;;;;;;;;6295283;22;20433;-46
2022/07/17 11:22:23;;;;;;;2.45;1.33;;;;;;;;;;6293101;22;20007;-47
2022/07/17 11:24:50;;;;;;;3.40;1.48;;;;;;;;;;6292153;22;20015;-45
2022/07/17 11:27:20;;;;;;;1.98;1.58;;;;;;;;;;6295325;22;20015;-45
2022/07/17 11:29:49;;;;;;;2.85;1.75;;;;;;;;;;6290395;22;20022;-46
2022/07/17 11:32:16;;;;;;;2.33;1.35;;;;;;;;;;6295236;22;20015;-46
2022/07/17 11:34:43;;;;;;;2.85;1.60;;;;;;;;;;6284820;22;20273;-45
2022/07/17 11:37:10;;;;;;;3.47;1.42;;;;;;;;;;6294682;22;20015;-46
2022/07/17 11:39:38;;;;;;;4.57;1.90;;;;;;;;;;6287383;22;20015;-46
2022/07/17 11:42:05;;;;;;;3.95;2.50;;;;;;;;;;6298676;22;20020;-47
2022/07/17 11:44:31;;;;;;;6.90;1.80;;;;;;;;;;6289550;22;20369;-48
2022/07/17 11:47:00;;;;;;;6.35;1.77;;;;;;;;;;6297764;22;20578;-47
2022/07/17 11:49:28;;;;;;;3.23;1.87;;;;;;;;;;6290093;22;20019;-48
2022/07/17 11:51:56;;;;;;;3.65;3.05;;;;;;;;;;6296112;22;20456;-50
2022/07/17 11:54:23;;;;;;;3.40;1.70;;;;;;;;;;6277389;22;20011;-46
2022/07/17 11:56:53;;;;;;;5.13;1.50;;;;;;;;;;6299330;22;20011;-46
2022/07/17 11:59:25;;;;;;;3.15;2.03;;;;;;;;;;6290064;22;20036;-46
2022/07/17 12:01:51;;;;;;;2.03;1.88;;;;;;;;;;6291367;22;20019;-47
2022/07/17 12:04:20;;;;;;;4.20;1.92;;;;;;;;;;6288464;22;20072;-47
2022/07/17 12:06:47;;;;;;;1.52;1.27;;;;;;;;;;6296619;22;20082;-45
2022/07/17 12:09:14;;;;;;;2.33;2.10;;;;;;;;;;6287496;22;20015;-47
2022/07/17 12:11:48;;;;;;;1.60;1.50;;;;;;;;;;6291800;22;20018;-48
2022/07/17 12:14:14;;;;;;;3.17;1.45;;;;;;;;;;6299785;22;20011;-44
2022/07/17 12:16:41;;;;;;;2.70;2.40;;;;;;;;;;6285122;22;20089;-47
2022/07/17 12:19:09;;;;;;;4.22;2.45;;;;;;;;;;6301105;22;20023;-45
2022/07/17 12:21:48;;;;;;;1.67;1.50;;;;;;;;;;6287303;22;20039;-47
2022/07/17 12:24:15;;;;;;;;;;;;;;;;;;6290324;22;20605;-47
2022/07/17 12:26:41;;;;;;;4.80;1.30;;;;;;;;;;6298871;22;19959;-49
2022/07/17 12:29:08;;;;;;;1.88;1.00;;;;;;;;;;6283889;22;20019;-48
2022/07/17 12:31:34;;;;;;;1.77;1.42;;;;;;;;;;6294356;22;20022;-46
2022/07/17 12:34:01;;;;;;;2.17;1.60;;;;;;;;;;6286174;22;20019;-48
2022/07/17 12:36:27;;;;;;;2.63;1.48;;;;;;;;;;6295728;22;20536;-49
2022/07/17 12:38:55;;;;;;;1.65;1.42;;;;;;;;;;6286687;22;20018;-46
2022/07/17 12:41:22;;;;;;;3.33;1.60;;;;;;;;;;6298877;22;20037;-46
2022/07/17 12:43:48;;;;;;;1.95;1.75;;;;;;;;;;6286539;22;20041;-47
2022/07/17 12:46:16;;;;;;;2.08;1.77;;;;;;;;;;6300456;22;20057;-47
2022/07/17 12:48:44;;;;;;;1.98;1.67;;;;;;;;;;6286544;22;20502;-46
2022/07/17 12:51:12;;;;;;;2.28;2.08;;;;;;;;;;6284971;22;20019;-46
2022/07/17 12:53:39;;;;;;;2.45;1.75;;;;;;;;;;6281339;22;20041;-47
2022/07/17 12:56:07;;;;;;;2.35;1.85;;;;;;;;;;6293441;22;20015;-46
2022/07/17 12:58:34;;;;;;;1.47;1.07;;;;;;;;;;6280592;22;20019;-47
2022/07/17 13:01:01;;;;;;;3.63;1.35;;;;;;;;;;6297781;22;20015;-49
2022/07/17 13:03:27;;;;;;;2.17;1.92;;;;;;;;;;6294659;22;20026;-44
2022/07/17 13:05:54;;;;;;;4.43;2.22;;;;;;;;;;6289701;22;20657;-46
2022/07/17 13:08:20;;;;;;;2.13;1.88;;;;;;;;;;6289766;22;20019;-46
2022/07/17 13:10:47;;;;;;;2.10;1.85;;;;;;;;;;6289421;22;20092;-48
2022/07/17 13:13:16;;;;;;;2.40;1.75;;;;;;;;;;6293405;22;20015;-44
2022/07/17 13:15:43;;;;;;;2.75;1.83;;;;;;;;;;6289152;22;20083;-47
2022/07/17 13:18:10;;;;;;;1.73;1.58;;;;;;;;;;6297344;22;20831;-48
2022/07/17 13:20:37;;;;;;;1.85;1.58;;;;;;;;;;6291317;22;20015;-47
2022/07/17 13:23:05;;;;;;;1.63;1.45;;;;;;;;;;6296813;22;20097;-45
2022/07/17 13:25:32;;;;;;;4.35;2.90;;;;;;;;;;6299946;22;20033;-44
2022/07/17 13:27:59;;;;;;;2.90;2.60;;;;;;;;;;6287376;22;20035;-45
2022/07/17 13:30:27;;;;;;;3.58;3.28;;;;;;;;;;6296401;22;20015;-45
2022/07/17 13:32:54;;;;;;;5.65;3.55;;;;;;;;;;6287655;22;20316;-44
2022/07/17 13:35:20;;;;;;;5.57;4.78;;;;;;;;;;6295252;22;20030;-45
2022/07/17 13:37:47;;;;;;;4.28;3.95;;;;;;;;;;6287313;22;20015;-45
2022/07/17 13:40:13;;;;;;;2.25;2.05;;;;;;;;;;6299144;22;20011;-47
2022/07/17 13:42:40;;;;;;;2.50;2.30;;;;;;;;;;6286995;22;20063;-46
2022/07/17 13:45:07;;;;;;;6.47;2.78;;;;;;;;;;6297114;22;20016;-47
2022/07/17 13:47:35;;;;;;;5.32;3.10;;;;;;;;;;6291136;22;20019;-48
2022/07/17 13:50:02;;;;;;;6.47;5.88;;;;;;;;;;6294263;22;20016;-49
2022/07/17 13:52:28;;;;;;;7.28;6.57;;;;;;;;;;6290478;22;20011;-47
2022/07/17 13:54:55;;;;;;;4.45;4.05;;;;;;;;;;6296644;22;20022;-46
2022/07/17 13:57:22;;;;;;;3.95;2.95;;;;;;;;;;6289856;22;20295;-44
2022/07/17 13:59:48;;;;;;;2.72;2.22;;;;;;;;;;6294718;22;20102;-46
2022/07/17 14:02:15;;;;;;;2.03;1.85;;;;;;;;;;6288487;22;20012;-45
2022/07/17 14:04:42;;;;;;;3.03;2.38;;;;;;;;;;6295146;22;20021;-45
2022/07/17 14:07:09;;;;;;;3.55;3.25;;;;;;;;;;6286083;22;20348;-45
2022/07/17 14:09:36;;;;;;;6.88;3.13;;;;;;;;;;6295221;22;20011;-45
2022/07/17 14:12:02;;;;;;;3.08;2.55;;;;;;;;;;6293250;22;20019;-44
2022/07/17 14:14:29;;;;;;;3.50;2.33;;;;;;;;;;6291803;22;20377;-46
2022/07/17 14:16:56;;;;;;;2.22;1.80;;;;;;;;;;6289651;22;20011;-46
2022/07/17 14:19:22;;;;;;;1.85;1.70;;;;;;;;;;6294383;22;20019;-48
2022/07/17 14:21:50;;;;;;;2.60;2.38;;;;;;;;;;6295115;22;20076;-48
2022/07/17 14:24:17;;;;;;;2.40;2.20;;;;;;;;;;6285606;22;20021;-45
2022/07/17 14:26:44;;;;;;;3.30;3.00;;;;;;;;;;6293430;22;20016;-46
2022/07/17 14:29:10;;;;;;;2.80;2.58;;;;;;;;;;6289910;22;20011;-46
2022/07/17 14:31:37;;;;;;;2.10;1.90;;;;;;;;;;6294680;22;20035;-50
2022/07/17 14:34:03;;;;;;;2.25;1.63;;;;;;;;;;6286749;22;20026;-48
2022/07/17 14:36:30;;;;;;;1.92;1.73;;;;;;;;;;6297082;22;20700;-44